sensor_id;sensor_type;location;lat;lon;timestamp;pressure;altitude;pressure_sealevel;temperature;humidity
1480;BME280;732;51.698;4.886;2022-09-09T00:00:47;100846.19;;;16.01;100.00
1480;BME280;732;51.698;4.886;2022-09-09T00:03:22;100874.31;;;16.06;100.00
1480;BME280;732;51.698;4.886;2022-09-09T00:06:02;100902.31;;;16.33;100.00
1480;BME280;732;51.698;4.886;2022-09-09T00:08:42;100904.06;;;16.33;100.00
1480;BME280;732;51.698;4.886;2022-09-09T00:11:13;100907.66;;;16.22;100.00
1480;BME280;732;51.698;4.886;2022-09-09T00:13:52;100909.47;;;16.04;100.00
1480;BME280;732;51.698;4.886;2022-09-09T00:16:25;100909.44;;;16.08;100.00
1480;BME280;732;51.698;4.886;2022-09-09T00:19:04;100905.91;;;16.18;100.00
1480;BME280;732;51.698;4.886;2022-09-09T00:21:36;100877.00;;;15.90;100.00
1480;BME280;732;51.698;4.886;2022-09-09T00:24:14;100879.59;;;15.99;100.00
1480;BME280;732;51.698;4.886;2022-09-09T00:26:51;100887.50;;;16.08;100.00
1480;BME280;732;51.698;4.886;2022-09-09T00:29:28;100878.72;;;16.01;100.00
1480;BME280;732;51.698;4.886;2022-09-09T00:32:09;100877.88;;;15.96;100.00
1480;BME280;732;51.698;4.886;2022-09-09T00:34:48;100849.81;;;15.77;100.00
1480;BME280;732;51.698;4.886;2022-09-09T00:37:19;100848.91;;;15.84;100.00
1480;BME280;732;51.698;4.886;2022-09-09T00:39:49;100848.91;;;15.78;100.00
1480;BME280;732;51.698;4.886;2022-09-09T00:42:25;100873.50;;;15.82;100.00
1480;BME280;732;51.698;4.886;2022-09-09T00:45:03;100837.53;;;15.61;100.00
1480;BME280;732;51.698;4.886;2022-09-09T00:47:44;100876.13;;;15.80;100.00
1480;BME280;732;51.698;4.886;2022-09-09T00:50:31;100841.06;;;15.62;100.00
1480;BME280;732;51.698;4.886;2022-09-09T00:53:19;100851.56;;;15.75;100.00
1480;BME280;732;51.698;4.886;2022-09-09T00:55:59;100861.25;;;15.73;100.00
1480;BME280;732;51.698;4.886;2022-09-09T00:58:28;100864.69;;;15.86;100.00
1480;BME280;732;51.698;4.886;2022-09-09T01:01:04;100864.72;;;15.84;100.00
1480;BME280;732;51.698;4.886;2022-09-09T01:03:38;100812.09;;;15.59;100.00
1480;BME280;732;51.698;4.886;2022-09-09T01:06:16;100817.38;;;15.59;100.00
1480;BME280;732;51.698;4.886;2022-09-09T01:09:11;100850.69;;;15.73;100.00
1480;BME280;732;51.698;4.886;2022-09-09T01:11:55;100796.28;;;15.54;100.00
1480;BME280;732;51.698;4.886;2022-09-09T01:14:41;100868.19;;;16.00;100.00
1480;BME280;732;51.698;4.886;2022-09-09T01:17:19;100759.44;;;15.53;100.00
1480;BME280;732;51.698;4.886;2022-09-09T01:20:07;100810.25;;;15.80;100.00
1480;BME280;732;51.698;4.886;2022-09-09T01:23:02;100861.09;;;16.14;100.00
1480;BME280;732;51.698;4.886;2022-09-09T01:26:10;100849.66;;;16.16;100.00
1480;BME280;732;51.698;4.886;2022-09-09T01:28:43;100828.63;;;15.97;100.00
1480;BME280;732;51.698;4.886;2022-09-09T01:31:19;100831.31;;;15.88;100.00
1480;BME280;732;51.698;4.886;2022-09-09T01:33:48;100795.38;;;15.72;100.00
1480;BME280;732;51.698;4.886;2022-09-09T01:36:25;100852.38;;;15.98;100.00
1480;BME280;732;51.698;4.886;2022-09-09T01:38:56;100822.56;;;15.81;100.00
1480;BME280;732;51.698;4.886;2022-09-09T01:41:26;100820.81;;;15.73;100.00
1480;BME280;732;51.698;4.886;2022-09-09T01:44:03;100807.66;;;15.67;100.00
1480;BME280;732;51.698;4.886;2022-09-09T01:46:33;100837.53;;;15.78;100.00
1480;BME280;732;51.698;4.886;2022-09-09T01:49:05;100832.25;;;15.78;100.00
1480;BME280;732;51.698;4.886;2022-09-09T01:51:36;100840.97;;;15.87;100.00
1480;BME280;732;51.698;4.886;2022-09-09T01:54:07;100798.88;;;15.69;100.00
1480;BME280;732;51.698;4.886;2022-09-09T01:56:47;100806.75;;;15.78;100.00
1480;BME280;732;51.698;4.886;2022-09-09T01:59:41;100780.47;;;15.41;100.00
1480;BME280;732;51.698;4.886;2022-09-09T02:02:19;100828.72;;;15.77;100.00
1480;BME280;732;51.698;4.886;2022-09-09T02:05:13;100820.84;;;15.71;100.00
1480;BME280;732;51.698;4.886;2022-09-09T02:07:48;100827.00;;;15.72;100.00
1480;BME280;732;51.698;4.886;2022-09-09T02:10:36;100808.50;;;15.81;100.00
1480;BME280;732;51.698;4.886;2022-09-09T02:13:22;100805.00;;;15.73;100.00
1480;BME280;732;51.698;4.886;2022-09-09T02:15:55;100807.66;;;15.67;100.00
1480;BME280;732;51.698;4.886;2022-09-09T02:18:27;100805.94;;;15.63;100.00
1480;BME280;732;51.698;4.886;2022-09-09T02:20:58;100812.94;;;15.71;100.00
1480;BME280;732;51.698;4.886;2022-09-09T02:23:28;100808.50;;;15.81;100.00
1480;BME280;732;51.698;4.886;2022-09-09T02:25:58;100813.78;;;15.75;100.00
1480;BME280;732;51.698;4.886;2022-09-09T02:28:31;100793.66;;;15.54;100.00
1480;BME280;732;51.698;4.886;2022-09-09T02:31:01;100778.78;;;15.46;100.00
1480;BME280;732;51.698;4.886;2022-09-09T02:33:45;100763.81;;;15.37;100.00
1480;BME280;732;51.698;4.886;2022-09-09T02:36:15;100812.06;;;15.69;100.00
1480;BME280;732;51.698;4.886;2022-09-09T02:38:47;100758.56;;;15.46;100.00
1480;BME280;732;51.698;4.886;2022-09-09T02:41:23;100812.94;;;15.68;100.00
1480;BME280;732;51.698;4.886;2022-09-09T02:43:53;100802.41;;;15.68;100.00
1480;BME280;732;51.698;4.886;2022-09-09T02:46:40;100798.03;;;15.54;100.00
1480;BME280;732;51.698;4.886;2022-09-09T02:49:19;100808.56;;;15.61;100.00
1480;BME280;732;51.698;4.886;2022-09-09T02:51:57;100804.19;;;15.59;100.00
1480;BME280;732;51.698;4.886;2022-09-09T02:54:32;100807.72;;;15.50;100.00
1480;BME280;732;51.698;4.886;2022-09-09T02:57:11;100771.75;;;15.32;100.00
1480;BME280;732;51.698;4.886;2022-09-09T02:59:44;100805.06;;;15.56;100.00
1480;BME280;732;51.698;4.886;2022-09-09T03:02:13;100788.41;;;15.38;100.00
1480;BME280;732;51.698;4.886;2022-09-09T03:04:44;100804.22;;;15.45;100.00
1480;BME280;732;51.698;4.886;2022-09-09T03:07:19;100754.19;;;15.25;100.00
1480;BME280;732;51.698;4.886;2022-09-09T03:09:49;100805.97;;;15.46;100.00
1480;BME280;732;51.698;4.886;2022-09-09T03:12:17;100806.88;;;15.42;100.00
1480;BME280;732;51.698;4.886;2022-09-09T03:14:47;100807.75;;;15.30;100.00
1480;BME280;732;51.698;4.886;2022-09-09T03:17:15;100809.50;;;15.42;100.00
1480;BME280;732;51.698;4.886;2022-09-09T03:19:50;100797.19;;;15.38;100.00
1480;BME280;732;51.698;4.886;2022-09-09T03:22:19;100781.41;;;15.29;100.00
1480;BME280;732;51.698;4.886;2022-09-09T03:24:48;100803.31;;;15.39;100.00
1480;BME280;732;51.698;4.886;2022-09-09T03:27:18;100798.06;;;15.29;100.00
1480;BME280;732;51.698;4.886;2022-09-09T03:29:48;100798.94;;;15.33;100.00
1480;BME280;732;51.698;4.886;2022-09-09T03:32:21;100598.22;;;14.15;100.00
1480;BME280;732;51.698;4.886;2022-09-09T03:34:54;100718.31;;;14.85;100.00
1480;BME280;732;51.698;4.886;2022-09-09T03:37:23;100789.28;;;15.40;100.00
1480;BME280;732;51.698;4.886;2022-09-09T03:39:52;100730.56;;;14.85;100.00
1480;BME280;732;51.698;4.886;2022-09-09T03:42:23;100799.84;;;15.24;100.00
1480;BME280;732;51.698;4.886;2022-09-09T03:44:55;100787.56;;;15.20;100.00
1480;BME280;732;51.698;4.886;2022-09-09T03:47:25;100798.97;;;15.24;100.00
1480;BME280;732;51.698;4.886;2022-09-09T03:50:00;100797.22;;;15.30;100.00
1480;BME280;732;51.698;4.886;2022-09-09T03:52:28;100791.94;;;15.26;100.00
1480;BME280;732;51.698;4.886;2022-09-09T03:54:58;100788.44;;;15.10;100.00
1480;BME280;732;51.698;4.886;2022-09-09T03:57:27;100784.91;;;15.26;100.00
1480;BME280;732;51.698;4.886;2022-09-09T03:59:58;100788.41;;;15.36;100.00
1480;BME280;732;51.698;4.886;2022-09-09T04:02:31;100792.81;;;15.34;100.00
1480;BME280;732;51.698;4.886;2022-09-09T04:05:00;100764.75;;;15.19;100.00
1480;BME280;732;51.698;4.886;2022-09-09T04:07:28;100740.22;;;15.02;100.00
1480;BME280;732;51.698;4.886;2022-09-09T04:09:56;100791.06;;;15.44;100.00
1480;BME280;732;51.698;4.886;2022-09-09T04:12:25;100792.78;;;15.39;100.00
1480;BME280;732;51.698;4.886;2022-09-09T04:14:53;100743.69;;;15.09;100.00
1480;BME280;732;51.698;4.886;2022-09-09T04:17:23;100794.53;;;15.52;100.00
1480;BME280;732;51.698;4.886;2022-09-09T04:19:51;100791.91;;;15.49;100.00
1480;BME280;732;51.698;4.886;2022-09-09T04:22:21;100788.38;;;15.54;100.00
1480;BME280;732;51.698;4.886;2022-09-09T04:24:49;100773.50;;;15.43;100.00
1480;BME280;732;51.698;4.886;2022-09-09T04:27:19;100780.50;;;15.48;100.00
1480;BME280;732;51.698;4.886;2022-09-09T04:29:47;100784.03;;;15.37;100.00
1480;BME280;732;51.698;4.886;2022-09-09T04:32:15;100780.50;;;15.39;100.00
1480;BME280;732;51.698;4.886;2022-09-09T04:34:47;100758.56;;;15.29;100.00
1480;BME280;732;51.698;4.886;2022-09-09T04:37:15;100724.38;;;15.16;100.00
1480;BME280;732;51.698;4.886;2022-09-09T04:39:44;100727.03;;;15.08;100.00
1480;BME280;732;51.698;4.886;2022-09-09T04:42:13;100742.78;;;15.34;100.00
1480;BME280;732;51.698;4.886;2022-09-09T04:44:42;100774.38;;;15.48;100.00
1480;BME280;732;51.698;4.886;2022-09-09T04:47:11;100774.31;;;15.70;100.00
1480;BME280;732;51.698;4.886;2022-09-09T04:49:41;100721.69;;;15.46;100.00
1480;BME280;732;51.698;4.886;2022-09-09T04:52:11;100761.97;;;15.81;100.00
1480;BME280;732;51.698;4.886;2022-09-09T04:54:40;100747.91;;;15.75;100.00
1480;BME280;732;51.698;4.886;2022-09-09T04:57:10;100713.66;;;15.73;100.00
1480;BME280;732;51.698;4.886;2022-09-09T04:59:45;100753.94;;;16.01;100.00
1480;BME280;732;51.698;4.886;2022-09-09T05:02:14;100744.28;;;15.97;100.00
1480;BME280;732;51.698;4.886;2022-09-09T05:04:43;100753.97;;;15.98;100.00
1480;BME280;732;51.698;4.886;2022-09-09T05:07:13;100749.63;;;15.85;100.00
1480;BME280;732;51.698;4.886;2022-09-09T05:09:42;100756.69;;;15.81;100.00
1480;BME280;732;51.698;4.886;2022-09-09T05:12:12;100725.97;;;15.76;100.00
1480;BME280;732;51.698;4.886;2022-09-09T05:14:47;100732.97;;;15.81;100.00
1480;BME280;732;51.698;4.886;2022-09-09T05:17:15;100754.84;;;16.00;100.00
1480;BME280;732;51.698;4.886;2022-09-09T05:19:44;100692.63;;;15.66;100.00
1480;BME280;732;51.698;4.886;2022-09-09T05:22:19;100749.56;;;16.00;100.00
1480;BME280;732;51.698;4.886;2022-09-09T05:24:49;100732.09;;;15.81;100.00
1480;BME280;732;51.698;4.886;2022-09-09T05:27:18;100705.78;;;15.70;100.00
1480;BME280;732;51.698;4.886;2022-09-09T05:29:48;100760.09;;;15.97;100.00
1480;BME280;732;51.698;4.886;2022-09-09T05:32:17;100770.66;;;15.95;100.00
1480;BME280;732;51.698;4.886;2022-09-09T05:34:48;100765.38;;;15.98;100.00
1480;BME280;732;51.698;4.886;2022-09-09T05:37:18;100743.44;;;15.96;100.00
1480;BME280;732;51.698;4.886;2022-09-09T05:39:48;100760.97;;;16.03;100.00
1480;BME280;732;51.698;4.886;2022-09-09T05:42:17;100761.81;;;16.02;100.00
1480;BME280;732;51.698;4.886;2022-09-09T05:44:46;100724.19;;;15.81;100.00
1480;BME280;732;51.698;4.886;2022-09-09T05:47:14;100760.13;;;15.92;100.00
1480;BME280;732;51.698;4.886;2022-09-09T05:49:43;100727.69;;;15.83;100.00
1480;BME280;732;51.698;4.886;2022-09-09T05:52:12;100746.03;;;16.01;100.00
1480;BME280;732;51.698;4.886;2022-09-09T05:54:42;100764.44;;;16.13;100.00
1480;BME280;732;51.698;4.886;2022-09-09T05:57:11;100763.47;;;16.21;100.00
1480;BME280;732;51.698;4.886;2022-09-09T05:59:39;100756.53;;;16.08;100.00
1480;BME280;732;51.698;4.886;2022-09-09T06:02:09;100772.25;;;16.23;100.00
1480;BME280;732;51.698;4.886;2022-09-09T06:04:37;100755.66;;;16.09;100.00
1480;BME280;732;51.698;4.886;2022-09-09T06:07:07;100770.44;;;16.35;100.00
1480;BME280;732;51.698;4.886;2022-09-09T06:09:35;100745.84;;;16.30;100.00
1480;BME280;732;51.698;4.886;2022-09-09T06:12:06;100767.69;;;16.56;100.00
1480;BME280;732;51.698;4.886;2022-09-09T06:14:36;100757.03;;;16.68;100.00
1480;BME280;732;51.698;4.886;2022-09-09T06:17:09;100745.56;;;16.73;100.00
1480;BME280;732;51.698;4.886;2022-09-09T06:19:37;100767.19;;;17.14;100.00
1480;BME280;732;51.698;4.886;2022-09-09T06:22:06;100743.56;;;16.99;100.00
1480;BME280;732;51.698;4.886;2022-09-09T06:24:39;100773.31;;;17.16;100.00
1480;BME280;732;51.698;4.886;2022-09-09T06:27:09;100755.63;;;17.23;100.00
1480;BME280;732;51.698;4.886;2022-09-09T06:29:37;100768.72;;;17.37;100.00
1480;BME280;732;51.698;4.886;2022-09-09T06:32:07;100742.53;;;17.14;100.00
1480;BME280;732;51.698;4.886;2022-09-09T06:34:36;100696.84;;;17.04;100.00
1480;BME280;732;51.698;4.886;2022-09-09T06:37:04;100743.16;;;17.39;100.00
1480;BME280;732;51.698;4.886;2022-09-09T06:39:41;100761.31;;;17.69;100.00
1480;BME280;732;51.698;4.886;2022-09-09T06:42:11;100767.41;;;17.74;100.00
1480;BME280;732;51.698;4.886;2022-09-09T06:45:03;100717.38;;;17.59;100.00
1480;BME280;732;51.698;4.886;2022-09-09T06:47:46;100723.41;;;17.71;100.00
1480;BME280;732;51.698;4.886;2022-09-09T06:50:16;100774.06;;;18.03;100.00
1480;BME280;732;51.698;4.886;2022-09-09T06:52:46;100757.91;;;18.28;100.00
1480;BME280;732;51.698;4.886;2022-09-09T06:55:15;100757.19;;;18.13;100.00
1480;BME280;732;51.698;4.886;2022-09-09T06:57:46;100733.56;;;18.00;100.00
1480;BME280;732;51.698;4.886;2022-09-09T07:00:20;100749.44;;;18.03;100.00
1480;BME280;732;51.698;4.886;2022-09-09T07:02:51;100754.91;;;17.88;100.00
1480;BME280;732;51.698;4.886;2022-09-09T07:05:20;100738.13;;;17.92;100.00
1480;BME280;732;51.698;4.886;2022-09-09T07:07:49;100736.91;;;18.16;100.00
1480;BME280;732;51.698;4.886;2022-09-09T07:10:19;100745.28;;;18.45;100.00
1480;BME280;732;51.698;4.886;2022-09-09T07:12:52;100701.41;;;18.29;100.00
1480;BME280;732;51.698;4.886;2022-09-09T07:15:23;100750.28;;;18.64;100.00
1480;BME280;732;51.698;4.886;2022-09-09T07:17:53;100709.28;;;18.35;100.00
1480;BME280;732;51.698;4.886;2022-09-09T07:20:21;100736.41;;;18.50;100.00
1480;BME280;732;51.698;4.886;2022-09-09T07:22:50;100747.13;;;18.38;100.00
1480;BME280;732;51.698;4.886;2022-09-09T07:25:22;100741.09;;;18.29;100.00
1480;BME280;732;51.698;4.886;2022-09-09T07:27:52;100747.06;;;18.41;100.00
1480;BME280;732;51.698;4.886;2022-09-09T07:30:21;100756.44;;;18.66;100.00
1480;BME280;732;51.698;4.886;2022-09-09T07:32:54;100749.84;;;18.90;100.00
1480;BME280;732;51.698;4.886;2022-09-09T07:35:24;100708.28;;;18.40;100.00
1480;BME280;732;51.698;4.886;2022-09-09T07:37:54;100748.44;;;18.71;100.00
1480;BME280;732;51.698;4.886;2022-09-09T07:40:23;100744.97;;;18.66;100.00
1480;BME280;732;51.698;4.886;2022-09-09T07:42:53;100747.41;;;18.78;100.00
1480;BME280;732;51.698;4.886;2022-09-09T07:45:22;100744.75;;;18.78;100.00
1480;BME280;732;51.698;4.886;2022-09-09T07:47:50;100735.97;;;18.76;100.00
1480;BME280;732;51.698;4.886;2022-09-09T07:50:20;100745.88;;;18.65;100.00
1480;BME280;732;51.698;4.886;2022-09-09T07:52:50;100725.56;;;18.65;100.00
1480;BME280;732;51.698;4.886;2022-09-09T07:55:18;100717.88;;;18.50;100.00
1480;BME280;732;51.698;4.886;2022-09-09T07:57:46;100738.69;;;18.73;100.00
1480;BME280;732;51.698;4.886;2022-09-09T08:00:17;100737.09;;;18.61;100.00
1480;BME280;732;51.698;4.886;2022-09-09T08:02:51;100713.78;;;18.30;100.00
1480;BME280;732;51.698;4.886;2022-09-09T08:05:21;100742.47;;;18.57;100.00
1480;BME280;732;51.698;4.886;2022-09-09T08:07:50;100740.50;;;18.68;100.00
1480;BME280;732;51.698;4.886;2022-09-09T08:10:19;100681.91;;;18.37;100.00
1480;BME280;732;51.698;4.886;2022-09-09T08:12:48;100692.56;;;18.31;100.00
1480;BME280;732;51.698;4.886;2022-09-09T08:15:38;100746.03;;;18.56;100.00
1480;BME280;732;51.698;4.886;2022-09-09T08:18:08;100724.97;;;18.47;100.00
1480;BME280;732;51.698;4.886;2022-09-09T08:20:37;100750.94;;;18.77;100.00
1480;BME280;732;51.698;4.886;2022-09-09T08:23:06;100746.66;;;18.70;100.00
1480;BME280;732;51.698;4.886;2022-09-09T08:25:35;100736.53;;;18.94;100.00
1480;BME280;732;51.698;4.886;2022-09-09T08:28:03;100697.16;;;18.73;100.00
1480;BME280;732;51.698;4.886;2022-09-09T08:30:32;100724.19;;;18.93;100.00
1480;BME280;732;51.698;4.886;2022-09-09T08:33:02;100748.59;;;19.11;100.00
1480;BME280;732;51.698;4.886;2022-09-09T08:35:30;100737.72;;;18.77;100.00
1480;BME280;732;51.698;4.886;2022-09-09T08:38:01;100750.75;;;18.89;100.00
1480;BME280;732;51.698;4.886;2022-09-09T08:40:39;100729.56;;;18.89;100.00
1480;BME280;732;51.698;4.886;2022-09-09T08:43:11;100747.34;;;18.81;100.00
1480;BME280;732;51.698;4.886;2022-09-09T08:45:49;100753.34;;;18.93;100.00
1480;BME280;732;51.698;4.886;2022-09-09T08:48:39;100753.47;;;18.84;100.00
1480;BME280;732;51.698;4.886;2022-09-09T08:51:12;100753.44;;;18.87;100.00
1480;BME280;732;51.698;4.886;2022-09-09T08:53:50;100760.19;;;19.03;100.00
1480;BME280;732;51.698;4.886;2022-09-09T08:56:27;100755.75;;;19.05;100.00
1480;BME280;732;51.698;4.886;2022-09-09T08:59:01;100752.22;;;19.05;100.00
1480;BME280;732;51.698;4.886;2022-09-09T09:01:52;100718.84;;;18.96;100.00
1480;BME280;732;51.698;4.886;2022-09-09T09:04:42;100727.91;;;19.32;100.00
1480;BME280;732;51.698;4.886;2022-09-09T09:07:28;100756.16;;;19.33;100.00
1480;BME280;732;51.698;4.886;2022-09-09T09:10:12;100758.81;;;19.32;100.00
1480;BME280;732;51.698;4.886;2022-09-09T09:13:11;100767.72;;;19.26;100.00
1480;BME280;732;51.698;4.886;2022-09-09T09:15:45;100754.25;;;18.91;100.00
1480;BME280;732;51.698;4.886;2022-09-09T09:18:15;100773.59;;;18.94;100.00
1480;BME280;732;51.698;4.886;2022-09-09T09:20:54;100780.22;;;18.68;100.00
1480;BME280;732;51.698;4.886;2022-09-09T09:23:28;100785.56;;;18.66;100.00
1480;BME280;732;51.698;4.886;2022-09-09T09:26:08;100791.03;;;18.56;100.00
1480;BME280;732;51.698;4.886;2022-09-09T09:28:40;100766.56;;;18.36;100.00
1480;BME280;732;51.698;4.886;2022-09-09T09:31:13;100803.19;;;18.66;100.00
1480;BME280;732;51.698;4.886;2022-09-09T09:33:50;100787.50;;;18.55;100.00
1480;BME280;732;51.698;4.886;2022-09-09T09:36:34;100769.38;;;18.25;100.00
1480;BME280;732;51.698;4.886;2022-09-09T09:39:04;100800.72;;;18.55;100.00
1480;BME280;732;51.698;4.886;2022-09-09T09:41:57;100765.59;;;18.41;100.00
1480;BME280;732;51.698;4.886;2022-09-09T09:44:33;100794.56;;;18.55;100.00
1480;BME280;732;51.698;4.886;2022-09-09T09:47:13;100789.81;;;18.76;100.00
1480;BME280;732;51.698;4.886;2022-09-09T09:49:53;100767.81;;;18.71;100.00
1480;BME280;732;51.698;4.886;2022-09-09T09:52:26;100740.19;;;18.87;100.00
1480;BME280;732;51.698;4.886;2022-09-09T09:54:58;100788.38;;;19.08;100.00
1480;BME280;732;51.698;4.886;2022-09-09T09:57:34;100791.31;;;19.43;100.00
1480;BME280;732;51.698;4.886;2022-09-09T10:00:15;100784.00;;;19.98;100.00
1480;BME280;732;51.698;4.886;2022-09-09T10:02:51;100778.38;;;20.13;100.00
1480;BME280;732;51.698;4.886;2022-09-09T10:05:27;100768.50;;;20.21;100.00
1480;BME280;732;51.698;4.886;2022-09-09T10:08:12;100762.69;;;20.44;100.00
1480;BME280;732;51.698;4.886;2022-09-09T10:10:51;100763.34;;;20.52;100.00
1480;BME280;732;51.698;4.886;2022-09-09T10:13:29;100755.69;;;20.40;100.00
1480;BME280;732;51.698;4.886;2022-09-09T10:16:17;100726.06;;;20.20;100.00
1480;BME280;732;51.698;4.886;2022-09-09T10:18:59;100697.66;;;20.23;100.00
1480;BME280;732;51.698;4.886;2022-09-09T10:21:44;100756.34;;;20.49;100.00
1480;BME280;732;51.698;4.886;2022-09-09T10:24:34;100761.66;;;20.48;100.00
1480;BME280;732;51.698;4.886;2022-09-09T10:27:15;100731.66;;;20.44;100.00
1480;BME280;732;51.698;4.886;2022-09-09T10:30:14;100757.63;;;20.70;100.00
1480;BME280;732;51.698;4.886;2022-09-09T10:32:51;100719.69;;;20.28;100.00
1480;BME280;732;51.698;4.886;2022-09-09T10:35:29;100737.56;;;20.20;100.00
1480;BME280;732;51.698;4.886;2022-09-09T10:38:21;100744.09;;;20.02;100.00
1480;BME280;732;51.698;4.886;2022-09-09T10:41:15;100768.72;;;20.09;100.00
1480;BME280;732;51.698;4.886;2022-09-09T10:44:02;100769.16;;;19.89;100.00
1480;BME280;732;51.698;4.886;2022-09-09T10:46:48;100730.91;;;19.11;100.00
1480;BME280;732;51.698;4.886;2022-09-09T10:49:37;100758.38;;;19.07;100.00
1480;BME280;732;51.698;4.886;2022-09-09T10:52:18;100763.69;;;19.05;100.00
1480;BME280;732;51.698;4.886;2022-09-09T10:54:56;100782.88;;;19.20;100.00
1480;BME280;732;51.698;4.886;2022-09-09T10:57:33;100764.75;;;18.95;100.00
1480;BME280;732;51.698;4.886;2022-09-09T11:00:15;100783.16;;;19.04;100.00
1480;BME280;732;51.698;4.886;2022-09-09T11:02:46;100739.28;;;18.88;100.00
1480;BME280;732;51.698;4.886;2022-09-09T11:05:20;100754.06;;;19.01;100.00
1480;BME280;732;51.698;4.886;2022-09-09T11:07:54;100791.09;;;19.03;100.00
1480;BME280;732;51.698;4.886;2022-09-09T11:10:36;100730.91;;;18.62;100.00
1480;BME280;732;51.698;4.886;2022-09-09T11:13:14;100743.94;;;18.74;100.00
1480;BME280;732;51.698;4.886;2022-09-09T11:15:49;100787.59;;;19.02;100.00
1480;BME280;732;51.698;4.886;2022-09-09T11:18:20;100786.00;;;18.92;100.00
1480;BME280;732;51.698;4.886;2022-09-09T11:20:54;100790.03;;;19.15;100.00
1480;BME280;732;51.698;4.886;2022-09-09T11:23:32;100803.78;;;19.38;100.00
1480;BME280;732;51.698;4.886;2022-09-09T11:26:16;100794.91;;;19.40;100.00
1480;BME280;732;51.698;4.886;2022-09-09T11:28:58;100765.31;;;19.63;100.00
1480;BME280;732;51.698;4.886;2022-09-09T11:31:45;100742.22;;;19.68;100.00
1480;BME280;732;51.698;4.886;2022-09-09T11:34:34;100776.09;;;19.96;100.00
1480;BME280;732;51.698;4.886;2022-09-09T11:40:33;100780.75;;;19.85;100.00
1480;BME280;732;51.698;4.886;2022-09-09T11:43:04;100748.88;;;19.87;100.00
1480;BME280;732;51.698;4.886;2022-09-09T11:45:36;100776.81;;;20.44;100.00
1480;BME280;732;51.698;4.886;2022-09-09T11:48:05;100778.03;;;20.30;100.00
1480;BME280;732;51.698;4.886;2022-09-09T11:50:36;100743.94;;;19.70;100.00
1480;BME280;732;51.698;4.886;2022-09-09T11:53:21;100761.88;;;19.99;100.00
1480;BME280;732;51.698;4.886;2022-09-09T11:56:09;100774.72;;;20.20;100.00
1480;BME280;732;51.698;4.886;2022-09-09T11:58:43;100744.94;;;19.63;100.00
1480;BME280;732;51.698;4.886;2022-09-09T12:01:35;100774.28;;;19.54;100.00
1480;BME280;732;51.698;4.886;2022-09-09T12:07:03;100747.34;;;19.30;100.00
1480;BME280;732;51.698;4.886;2022-09-09T12:09:47;100719.69;;;18.98;100.00
1480;BME280;732;51.698;4.886;2022-09-09T12:12:30;100759.94;;;19.19;100.00
1480;BME280;732;51.698;4.886;2022-09-09T12:17:50;100777.47;;;19.24;100.00
1480;BME280;732;51.698;4.886;2022-09-09T12:20:22;100755.09;;;19.42;100.00
1480;BME280;732;51.698;4.886;2022-09-09T12:26:06;100785.53;;;20.10;100.00
1480;BME280;732;51.698;4.886;2022-09-09T12:28:50;100743.69;;;19.81;100.00
1480;BME280;732;51.698;4.886;2022-09-09T12:31:27;100752.72;;;20.14;100.00
1480;BME280;732;51.698;4.886;2022-09-09T12:34:15;100753.38;;;20.23;100.00
1480;BME280;732;51.698;4.886;2022-09-09T12:36:48;100752.06;;;20.42;100.00
1480;BME280;732;51.698;4.886;2022-09-09T12:39:28;100768.09;;;20.74;100.00
1480;BME280;732;51.698;4.886;2022-09-09T12:41:58;100754.28;;;20.96;100.00
1480;BME280;732;51.698;4.886;2022-09-09T12:44:27;100761.81;;;21.14;100.00
1480;BME280;732;51.698;4.886;2022-09-09T12:47:00;100726.66;;;21.03;100.00
1480;BME280;732;51.698;4.886;2022-09-09T12:49:34;100720.69;;;20.95;100.00
1480;BME280;732;51.698;4.886;2022-09-09T12:52:06;100701.00;;;20.68;100.00
1480;BME280;732;51.698;4.886;2022-09-09T12:54:37;100747.88;;;21.06;100.00
1480;BME280;732;51.698;4.886;2022-09-09T12:57:09;100733.06;;;20.94;100.00
1480;BME280;732;51.698;4.886;2022-09-09T12:59:41;100722.91;;;20.76;100.00
1480;BME280;732;51.698;4.886;2022-09-09T13:02:21;100732.88;;;20.66;100.00
1480;BME280;732;51.698;4.886;2022-09-09T13:04:52;100723.13;;;20.67;100.00
1480;BME280;732;51.698;4.886;2022-09-09T13:07:21;100743.91;;;20.86;100.00
1480;BME280;732;51.698;4.886;2022-09-09T13:09:51;100743.25;;;21.12;100.00
1480;BME280;732;51.698;4.886;2022-09-09T13:12:22;100744.66;;;21.57;100.00
1480;BME280;732;51.698;4.886;2022-09-09T13:14:53;100749.34;;;21.80;100.00
1480;BME280;732;51.698;4.886;2022-09-09T13:17:24;100715.66;;;21.48;100.00
1480;BME280;732;51.698;4.886;2022-09-09T13:19:57;100737.47;;;21.30;100.00
1480;BME280;732;51.698;4.886;2022-09-09T13:22:30;100717.13;;;21.28;100.00
1480;BME280;732;51.698;4.886;2022-09-09T13:25:04;100688.91;;;21.53;100.00
1480;BME280;732;51.698;4.886;2022-09-09T13:27:34;100703.03;;;21.56;100.00
1480;BME280;732;51.698;4.886;2022-09-09T13:30:21;100740.91;;;21.34;100.00
1480;BME280;732;51.698;4.886;2022-09-09T13:33:04;100710.50;;;20.76;100.00
1480;BME280;732;51.698;4.886;2022-09-09T13:35:35;100707.44;;;20.58;100.00
1480;BME280;732;51.698;4.886;2022-09-09T13:38:14;100755.66;;;20.76;100.00
1480;BME280;732;51.698;4.886;2022-09-09T13:40:54;100743.22;;;20.78;100.00
1480;BME280;732;51.698;4.886;2022-09-09T13:43:25;100744.53;;;20.61;100.00
1480;BME280;732;51.698;4.886;2022-09-09T13:45:57;100767.22;;;20.74;100.00
1480;BME280;732;51.698;4.886;2022-09-09T13:48:26;100758.44;;;20.35;100.00
1480;BME280;732;51.698;4.886;2022-09-09T13:51:02;100761.19;;;20.31;100.00
1480;BME280;732;51.698;4.886;2022-09-09T13:53:32;100745.00;;;20.02;100.00
1480;BME280;732;51.698;4.886;2022-09-09T13:56:01;100748.59;;;19.99;100.00
1480;BME280;732;51.698;4.886;2022-09-09T13:58:29;100752.22;;;19.95;100.00
1480;BME280;732;51.698;4.886;2022-09-09T14:00:58;100751.56;;;19.85;100.00